sensor_id;sensor_type;location;lat;lon;timestamp;P1;durP1;ratioP1;P2;durP2;ratioP2
21168;SDS011;10742;51.816;8.662;2023-03-11T00:02:29;5.40;;;2.67;;
21168;SDS011;10742;51.816;8.662;2023-03-11T00:05:36;4.37;;;2.40;;
21168;SDS011;10742;51.816;8.662;2023-03-11T00:08:40;5.20;;;2.50;;
21168;SDS011;10742;51.816;8.662;2023-03-11T00:11:42;5.97;;;2.50;;
21168;SDS011;10742;51.816;8.662;2023-03-11T00:14:44;5.13;;;2.70;;
21168;SDS011;10742;51.816;8.662;2023-03-11T00:17:47;4.37;;;2.13;;
21168;SDS011;10742;51.816;8.662;2023-03-11T00:20:50;3.23;;;2.37;;
21168;SDS011;10742;51.816;8.662;2023-03-11T00:23:53;3.90;;;2.50;;
21168;SDS011;10742;51.816;8.662;2023-03-11T00:26:56;3.13;;;2.23;;
21168;SDS011;10742;51.816;8.662;2023-03-11T00:29:58;5.13;;;2.80;;
21168;SDS011;10742;51.816;8.662;2023-03-11T00:33:00;5.80;;;2.60;;
21168;SDS011;10742;51.816;8.662;2023-03-11T00:36:03;7.50;;;2.70;;
21168;SDS011;10742;51.816;8.662;2023-03-11T00:39:07;4.07;;;2.50;;
21168;SDS011;10742;51.816;8.662;2023-03-11T00:42:11;4.10;;;2.63;;
21168;SDS011;10742;51.816;8.662;2023-03-11T00:45:14;6.30;;;2.80;;
21168;SDS011;10742;51.816;8.662;2023-03-11T00:48:17;5.23;;;2.57;;
21168;SDS011;10742;51.816;8.662;2023-03-11T00:51:19;5.20;;;2.60;;
21168;SDS011;10742;51.816;8.662;2023-03-11T00:54:21;3.40;;;2.30;;
21168;SDS011;10742;51.816;8.662;2023-03-11T00:57:24;4.73;;;2.63;;
21168;SDS011;10742;51.816;8.662;2023-03-11T01:00:29;5.57;;;2.60;;
21168;SDS011;10742;51.816;8.662;2023-03-11T01:03:32;9.77;;;3.43;;
21168;SDS011;10742;51.816;8.662;2023-03-11T01:06:34;4.40;;;2.53;;
21168;SDS011;10742;51.816;8.662;2023-03-11T01:09:46;5.23;;;2.83;;
21168;SDS011;10742;51.816;8.662;2023-03-11T01:12:49;4.20;;;2.67;;
21168;SDS011;10742;51.816;8.662;2023-03-11T01:15:51;4.83;;;2.60;;
21168;SDS011;10742;51.816;8.662;2023-03-11T01:18:55;4.83;;;2.80;;
21168;SDS011;10742;51.816;8.662;2023-03-11T01:21:57;4.17;;;2.83;;
21168;SDS011;10742;51.816;8.662;2023-03-11T01:24:59;6.70;;;3.27;;
21168;SDS011;10742;51.816;8.662;2023-03-11T01:28:02;6.20;;;2.67;;
21168;SDS011;10742;51.816;8.662;2023-03-11T01:31:05;7.57;;;3.00;;
21168;SDS011;10742;51.816;8.662;2023-03-11T01:34:07;5.93;;;2.80;;
21168;SDS011;10742;51.816;8.662;2023-03-11T01:37:10;4.63;;;2.80;;
21168;SDS011;10742;51.816;8.662;2023-03-11T01:40:26;4.97;;;2.87;;
21168;SDS011;10742;51.816;8.662;2023-03-11T01:43:39;7.77;;;2.70;;
21168;SDS011;10742;51.816;8.662;2023-03-11T01:49:56;6.23;;;2.40;;
21168;SDS011;10742;51.816;8.662;2023-03-11T01:52:58;6.17;;;2.60;;
21168;SDS011;10742;51.816;8.662;2023-03-11T01:56:02;5.00;;;2.50;;
21168;SDS011;10742;51.816;8.662;2023-03-11T01:59:06;6.77;;;2.47;;
21168;SDS011;10742;51.816;8.662;2023-03-11T02:02:22;3.20;;;2.40;;
21168;SDS011;10742;51.816;8.662;2023-03-11T02:05:31;6.50;;;2.50;;
21168;SDS011;10742;51.816;8.662;2023-03-11T02:08:34;5.10;;;2.50;;
21168;SDS011;10742;51.816;8.662;2023-03-11T02:11:40;9.53;;;2.60;;
21168;SDS011;10742;51.816;8.662;2023-03-11T02:14:44;4.73;;;2.47;;
21168;SDS011;10742;51.816;8.662;2023-03-11T02:17:49;6.37;;;2.37;;
21168;SDS011;10742;51.816;8.662;2023-03-11T02:20:53;4.67;;;2.60;;
21168;SDS011;10742;51.816;8.662;2023-03-11T02:24:01;6.33;;;2.33;;
21168;SDS011;10742;51.816;8.662;2023-03-11T02:27:12;6.90;;;2.77;;
21168;SDS011;10742;51.816;8.662;2023-03-11T02:30:15;3.60;;;2.37;;
21168;SDS011;10742;51.816;8.662;2023-03-11T02:33:19;8.23;;;2.50;;
21168;SDS011;10742;51.816;8.662;2023-03-11T02:36:33;7.03;;;2.80;;
21168;SDS011;10742;51.816;8.662;2023-03-11T02:43:39;6.57;;;2.87;;
21168;SDS011;10742;51.816;8.662;2023-03-11T02:46:46;5.27;;;2.60;;
21168;SDS011;10742;51.816;8.662;2023-03-11T02:49:48;6.93;;;2.60;;
21168;SDS011;10742;51.816;8.662;2023-03-11T02:52:51;6.23;;;2.43;;
21168;SDS011;10742;51.816;8.662;2023-03-11T02:55:55;4.77;;;2.33;;
21168;SDS011;10742;51.816;8.662;2023-03-11T02:58:58;7.57;;;2.47;;
21168;SDS011;10742;51.816;8.662;2023-03-11T03:02:01;7.13;;;2.63;;
21168;SDS011;10742;51.816;8.662;2023-03-11T03:05:05;5.87;;;2.30;;
21168;SDS011;10742;51.816;8.662;2023-03-11T03:08:09;8.07;;;3.00;;
21168;SDS011;10742;51.816;8.662;2023-03-11T03:11:12;6.17;;;2.40;;
21168;SDS011;10742;51.816;8.662;2023-03-11T03:14:14;9.40;;;2.27;;
21168;SDS011;10742;51.816;8.662;2023-03-11T03:17:17;7.50;;;2.50;;
21168;SDS011;10742;51.816;8.662;2023-03-11T03:20:21;8.20;;;2.67;;
21168;SDS011;10742;51.816;8.662;2023-03-11T03:23:27;5.53;;;2.33;;
21168;SDS011;10742;51.816;8.662;2023-03-11T03:26:30;6.53;;;2.60;;
21168;SDS011;10742;51.816;8.662;2023-03-11T03:29:33;10.43;;;2.60;;
21168;SDS011;10742;51.816;8.662;2023-03-11T03:32:36;5.70;;;2.47;;
21168;SDS011;10742;51.816;8.662;2023-03-11T03:35:41;4.47;;;2.50;;
21168;SDS011;10742;51.816;8.662;2023-03-11T03:38:55;4.30;;;2.20;;
21168;SDS011;10742;51.816;8.662;2023-03-11T03:42:02;6.03;;;2.80;;
21168;SDS011;10742;51.816;8.662;2023-03-11T03:45:07;5.57;;;2.80;;
21168;SDS011;10742;51.816;8.662;2023-03-11T03:48:10;6.90;;;2.50;;
21168;SDS011;10742;51.816;8.662;2023-03-11T03:51:17;7.30;;;2.43;;
21168;SDS011;10742;51.816;8.662;2023-03-11T03:54:38;6.30;;;2.00;;
21168;SDS011;10742;51.816;8.662;2023-03-11T03:57:40;4.87;;;2.20;;
21168;SDS011;10742;51.816;8.662;2023-03-11T04:00:45;3.47;;;1.93;;
21168;SDS011;10742;51.816;8.662;2023-03-11T04:03:47;4.50;;;2.23;;
21168;SDS011;10742;51.816;8.662;2023-03-11T04:06:50;5.97;;;2.30;;
21168;SDS011;10742;51.816;8.662;2023-03-11T04:09:53;5.43;;;1.90;;
21168;SDS011;10742;51.816;8.662;2023-03-11T04:12:56;10.43;;;2.60;;
21168;SDS011;10742;51.816;8.662;2023-03-11T04:15:58;4.93;;;2.20;;
21168;SDS011;10742;51.816;8.662;2023-03-11T04:19:00;6.47;;;2.43;;
21168;SDS011;10742;51.816;8.662;2023-03-11T04:22:02;4.20;;;1.97;;
21168;SDS011;10742;51.816;8.662;2023-03-11T04:25:05;7.80;;;2.60;;
21168;SDS011;10742;51.816;8.662;2023-03-11T04:28:08;12.57;;;2.40;;
21168;SDS011;10742;51.816;8.662;2023-03-11T04:31:10;4.37;;;2.10;;
21168;SDS011;10742;51.816;8.662;2023-03-11T04:34:13;8.40;;;2.47;;
21168;SDS011;10742;51.816;8.662;2023-03-11T04:37:16;6.83;;;2.30;;
21168;SDS011;10742;51.816;8.662;2023-03-11T04:40:18;3.97;;;2.17;;
21168;SDS011;10742;51.816;8.662;2023-03-11T04:43:21;9.93;;;2.40;;
21168;SDS011;10742;51.816;8.662;2023-03-11T04:46:23;5.30;;;2.23;;
21168;SDS011;10742;51.816;8.662;2023-03-11T04:49:26;5.83;;;2.40;;
21168;SDS011;10742;51.816;8.662;2023-03-11T04:52:28;8.50;;;2.30;;
21168;SDS011;10742;51.816;8.662;2023-03-11T04:55:30;8.60;;;2.40;;
21168;SDS011;10742;51.816;8.662;2023-03-11T04:58:34;5.83;;;2.03;;
21168;SDS011;10742;51.816;8.662;2023-03-11T05:01:36;8.30;;;2.00;;
21168;SDS011;10742;51.816;8.662;2023-03-11T05:04:41;8.27;;;2.43;;
21168;SDS011;10742;51.816;8.662;2023-03-11T05:07:43;7.90;;;2.27;;
21168;SDS011;10742;51.816;8.662;2023-03-11T05:10:47;11.43;;;3.37;;
21168;SDS011;10742;51.816;8.662;2023-03-11T05:13:51;13.97;;;4.23;;
21168;SDS011;10742;51.816;8.662;2023-03-11T05:16:54;26.83;;;7.40;;
21168;SDS011;10742;51.816;8.662;2023-03-11T05:19:57;23.23;;;6.83;;
21168;SDS011;10742;51.816;8.662;2023-03-11T05:23:05;17.90;;;5.03;;
21168;SDS011;10742;51.816;8.662;2023-03-11T05:26:09;11.03;;;2.87;;
21168;SDS011;10742;51.816;8.662;2023-03-11T05:29:15;5.87;;;2.27;;
21168;SDS011;10742;51.816;8.662;2023-03-11T05:32:18;7.93;;;2.27;;
21168;SDS011;10742;51.816;8.662;2023-03-11T05:35:23;4.03;;;2.00;;
21168;SDS011;10742;51.816;8.662;2023-03-11T05:38:30;6.57;;;2.10;;
21168;SDS011;10742;51.816;8.662;2023-03-11T05:41:33;6.70;;;1.80;;
21168;SDS011;10742;51.816;8.662;2023-03-11T05:44:35;9.57;;;1.97;;
21168;SDS011;10742;51.816;8.662;2023-03-11T05:47:39;11.03;;;2.10;;
21168;SDS011;10742;51.816;8.662;2023-03-11T05:50:45;6.67;;;2.10;;
21168;SDS011;10742;51.816;8.662;2023-03-11T05:53:47;7.83;;;1.80;;
21168;SDS011;10742;51.816;8.662;2023-03-11T05:56:56;7.53;;;2.00;;
21168;SDS011;10742;51.816;8.662;2023-03-11T05:59:59;7.27;;;2.07;;
21168;SDS011;10742;51.816;8.662;2023-03-11T06:03:01;5.80;;;2.17;;
21168;SDS011;10742;51.816;8.662;2023-03-11T06:06:04;3.57;;;1.70;;
21168;SDS011;10742;51.816;8.662;2023-03-11T06:09:12;9.00;;;2.10;;
21168;SDS011;10742;51.816;8.662;2023-03-11T06:12:16;5.27;;;1.90;;
21168;SDS011;10742;51.816;8.662;2023-03-11T06:15:42;3.33;;;1.90;;
21168;SDS011;10742;51.816;8.662;2023-03-11T06:18:44;6.80;;;1.97;;
21168;SDS011;10742;51.816;8.662;2023-03-11T06:21:47;10.23;;;2.00;;
21168;SDS011;10742;51.816;8.662;2023-03-11T06:24:51;6.20;;;1.97;;
21168;SDS011;10742;51.816;8.662;2023-03-11T06:27:54;7.90;;;1.93;;
21168;SDS011;10742;51.816;8.662;2023-03-11T06:31:05;4.20;;;2.03;;
21168;SDS011;10742;51.816;8.662;2023-03-11T06:34:11;6.07;;;1.90;;
21168;SDS011;10742;51.816;8.662;2023-03-11T06:37:14;5.67;;;2.00;;
21168;SDS011;10742;51.816;8.662;2023-03-11T06:40:16;8.30;;;1.80;;
21168;SDS011;10742;51.816;8.662;2023-03-11T06:43:20;10.33;;;2.00;;
21168;SDS011;10742;51.816;8.662;2023-03-11T06:46:23;7.77;;;2.10;;
21168;SDS011;10742;51.816;8.662;2023-03-11T06:49:28;8.27;;;2.80;;
21168;SDS011;10742;51.816;8.662;2023-03-11T06:52:31;9.47;;;2.37;;
21168;SDS011;10742;51.816;8.662;2023-03-11T06:55:34;8.60;;;2.40;;
21168;SDS011;10742;51.816;8.662;2023-03-11T06:58:38;8.17;;;2.30;;
21168;SDS011;10742;51.816;8.662;2023-03-11T07:01:43;5.30;;;1.90;;
21168;SDS011;10742;51.816;8.662;2023-03-11T07:04:47;7.77;;;2.10;;
21168;SDS011;10742;51.816;8.662;2023-03-11T07:07:54;4.87;;;1.93;;
21168;SDS011;10742;51.816;8.662;2023-03-11T07:11:05;8.27;;;2.27;;
21168;SDS011;10742;51.816;8.662;2023-03-11T07:14:10;6.13;;;1.97;;
21168;SDS011;10742;51.816;8.662;2023-03-11T07:17:17;4.33;;;2.10;;
21168;SDS011;10742;51.816;8.662;2023-03-11T07:20:23;7.17;;;2.30;;
21168;SDS011;10742;51.816;8.662;2023-03-11T07:23:25;4.77;;;1.90;;
21168;SDS011;10742;51.816;8.662;2023-03-11T07:26:27;7.07;;;1.97;;
21168;SDS011;10742;51.816;8.662;2023-03-11T07:29:31;5.43;;;1.97;;
21168;SDS011;10742;51.816;8.662;2023-03-11T07:32:33;7.43;;;2.10;;
21168;SDS011;10742;51.816;8.662;2023-03-11T07:35:36;6.03;;;1.90;;
21168;SDS011;10742;51.816;8.662;2023-03-11T07:38:38;6.87;;;2.20;;
21168;SDS011;10742;51.816;8.662;2023-03-11T07:41:42;6.27;;;2.10;;
21168;SDS011;10742;51.816;8.662;2023-03-11T07:44:45;7.83;;;2.07;;
21168;SDS011;10742;51.816;8.662;2023-03-11T07:47:47;6.10;;;2.00;;
21168;SDS011;10742;51.816;8.662;2023-03-11T07:50:49;6.97;;;2.10;;
21168;SDS011;10742;51.816;8.662;2023-03-11T07:54:00;3.33;;;1.67;;
21168;SDS011;10742;51.816;8.662;2023-03-11T07:57:03;10.90;;;2.10;;
21168;SDS011;10742;51.816;8.662;2023-03-11T08:00:05;4.73;;;1.77;;
21168;SDS011;10742;51.816;8.662;2023-03-11T08:03:12;8.90;;;2.03;;
21168;SDS011;10742;51.816;8.662;2023-03-11T08:06:15;4.20;;;1.90;;
21168;SDS011;10742;51.816;8.662;2023-03-11T08:09:20;7.83;;;2.10;;
21168;SDS011;10742;51.816;8.662;2023-03-11T08:12:22;4.70;;;2.03;;
21168;SDS011;10742;51.816;8.662;2023-03-11T08:15:24;3.13;;;1.73;;
21168;SDS011;10742;51.816;8.662;2023-03-11T08:18:26;8.03;;;2.23;;
21168;SDS011;10742;51.816;8.662;2023-03-11T08:21:29;4.47;;;1.90;;
21168;SDS011;10742;51.816;8.662;2023-03-11T08:24:32;12.03;;;2.07;;
21168;SDS011;10742;51.816;8.662;2023-03-11T08:27:35;3.83;;;1.77;;
21168;SDS011;10742;51.816;8.662;2023-03-11T08:30:37;5.17;;;2.00;;
21168;SDS011;10742;51.816;8.662;2023-03-11T08:33:43;7.43;;;2.10;;
21168;SDS011;10742;51.816;8.662;2023-03-11T08:36:46;9.43;;;2.00;;
21168;SDS011;10742;51.816;8.662;2023-03-11T08:39:49;4.07;;;2.10;;
21168;SDS011;10742;51.816;8.662;2023-03-11T08:42:51;4.40;;;1.93;;
21168;SDS011;10742;51.816;8.662;2023-03-11T08:45:55;7.33;;;2.17;;
21168;SDS011;10742;51.816;8.662;2023-03-11T08:49:00;4.50;;;1.70;;
21168;SDS011;10742;51.816;8.662;2023-03-11T08:52:03;6.60;;;2.10;;
21168;SDS011;10742;51.816;8.662;2023-03-11T08:55:06;4.27;;;1.90;;
21168;SDS011;10742;51.816;8.662;2023-03-11T08:58:11;10.00;;;2.13;;
21168;SDS011;10742;51.816;8.662;2023-03-11T09:01:14;8.57;;;2.70;;
21168;SDS011;10742;51.816;8.662;2023-03-11T09:04:16;8.93;;;2.57;;
21168;SDS011;10742;51.816;8.662;2023-03-11T09:07:18;7.97;;;2.60;;
21168;SDS011;10742;51.816;8.662;2023-03-11T09:10:21;9.00;;;2.60;;
21168;SDS011;10742;51.816;8.662;2023-03-11T09:13:23;9.23;;;2.37;;
21168;SDS011;10742;51.816;8.662;2023-03-11T09:16:25;5.47;;;2.20;;
21168;SDS011;10742;51.816;8.662;2023-03-11T09:19:27;8.87;;;2.50;;
21168;SDS011;10742;51.816;8.662;2023-03-11T09:22:30;8.23;;;2.07;;
21168;SDS011;10742;51.816;8.662;2023-03-11T09:25:32;8.50;;;2.10;;
21168;SDS011;10742;51.816;8.662;2023-03-11T09:28:34;5.97;;;2.03;;
21168;SDS011;10742;51.816;8.662;2023-03-11T09:31:37;6.77;;;1.87;;
21168;SDS011;10742;51.816;8.662;2023-03-11T09:34:39;5.80;;;1.87;;
21168;SDS011;10742;51.816;8.662;2023-03-11T09:37:42;8.80;;;2.20;;
21168;SDS011;10742;51.816;8.662;2023-03-11T09:43:59;9.93;;;2.23;;
21168;SDS011;10742;51.816;8.662;2023-03-11T09:53:34;5.33;;;1.77;;
21168;SDS011;10742;51.816;8.662;2023-03-11T09:56:44;6.67;;;2.00;;
21168;SDS011;10742;51.816;8.662;2023-03-11T09:59:47;4.87;;;2.03;;
21168;SDS011;10742;51.816;8.662;2023-03-11T10:02:49;8.70;;;2.47;;
21168;SDS011;10742;51.816;8.662;2023-03-11T10:05:53;7.90;;;2.10;;
21168;SDS011;10742;51.816;8.662;2023-03-11T10:09:05;9.70;;;2.27;;
21168;SDS011;10742;51.816;8.662;2023-03-11T10:16:25;5.53;;;1.70;;
21168;SDS011;10742;51.816;8.662;2023-03-11T10:29:50;5.00;;;2.10;;
21168;SDS011;10742;51.816;8.662;2023-03-11T10:33:20;7.40;;;1.97;;
21168;SDS011;10742;51.816;8.662;2023-03-11T10:36:37;4.63;;;2.10;;
21168;SDS011;10742;51.816;8.662;2023-03-11T10:39:45;5.43;;;1.67;;
21168;SDS011;10742;51.816;8.662;2023-03-11T10:42:49;8.33;;;1.70;;
21168;SDS011;10742;51.816;8.662;2023-03-11T10:45:52;4.20;;;1.50;;
21168;SDS011;10742;51.816;8.662;2023-03-11T10:48:55;6.80;;;1.50;;
21168;SDS011;10742;51.816;8.662;2023-03-11T10:51:57;8.00;;;1.70;;
21168;SDS011;10742;51.816;8.662;2023-03-11T10:55:00;5.40;;;1.93;;
21168;SDS011;10742;51.816;8.662;2023-03-11T10:58:05;4.33;;;1.90;;
21168;SDS011;10742;51.816;8.662;2023-03-11T11:01:13;6.37;;;2.20;;
21168;SDS011;10742;51.816;8.662;2023-03-11T11:04:22;6.03;;;2.00;;
21168;SDS011;10742;51.816;8.662;2023-03-11T11:07:35;7.67;;;1.80;;
21168;SDS011;10742;51.816;8.662;2023-03-11T11:10:52;4.77;;;2.17;;
21168;SDS011;10742;51.816;8.662;2023-03-11T11:13:57;6.13;;;2.23;;
21168;SDS011;10742;51.816;8.662;2023-03-11T11:17:01;8.47;;;2.63;;
21168;SDS011;10742;51.816;8.662;2023-03-11T11:20:03;10.40;;;3.30;;
21168;SDS011;10742;51.816;8.662;2023-03-11T11:23:23;10.13;;;2.37;;
21168;SDS011;10742;51.816;8.662;2023-03-11T11:26:27;6.10;;;1.90;;
21168;SDS011;10742;51.816;8.662;2023-03-11T11:29:30;8.40;;;2.10;;
21168;SDS011;10742;51.816;8.662;2023-03-11T11:32:32;6.00;;;2.03;;
21168;SDS011;10742;51.816;8.662;2023-03-11T11:35:37;8.50;;;2.10;;
21168;SDS011;10742;51.816;8.662;2023-03-11T11:38:52;12.63;;;2.83;;
21168;SDS011;10742;51.816;8.662;2023-03-11T11:41:55;10.47;;;3.10;;
21168;SDS011;10742;51.816;8.662;2023-03-11T11:52:05;7.97;;;2.30;;
21168;SDS011;10742;51.816;8.662;2023-03-11T11:58:29;7.87;;;1.77;;
21168;SDS011;10742;51.816;8.662;2023-03-11T12:11:47;5.60;;;1.43;;
21168;SDS011;10742;51.816;8.662;2023-03-11T12:18:29;6.37;;;1.50;;
21168;SDS011;10742;51.816;8.662;2023-03-11T12:25:19;7.37;;;2.10;;
21168;SDS011;10742;51.816;8.662;2023-03-11T12:28:35;8.27;;;2.20;;
21168;SDS011;10742;51.816;8.662;2023-03-11T12:31:57;8.47;;;1.67;;
21168;SDS011;10742;51.816;8.662;2023-03-11T12:35:08;7.83;;;2.00;;
21168;SDS011;10742;51.816;8.662;2023-03-11T12:38:26;4.90;;;1.67;;
21168;SDS011;10742;51.816;8.662;2023-03-11T12:41:31;1.83;;;1.37;;
21168;SDS011;10742;51.816;8.662;2023-03-11T12:44:43;3.70;;;1.30;;
21168;SDS011;10742;51.816;8.662;2023-03-11T12:47:46;1.73;;;1.20;;
21168;SDS011;10742;51.816;8.662;2023-03-11T12:54:36;5.50;;;1.60;;
21168;SDS011;10742;51.816;8.662;2023-03-11T12:57:49;5.07;;;1.90;;
21168;SDS011;10742;51.816;8.662;2023-03-11T13:01:02;5.27;;;1.63;;
21168;SDS011;10742;51.816;8.662;2023-03-11T13:07:59;6.90;;;1.47;;
21168;SDS011;10742;51.816;8.662;2023-03-11T13:14:32;7.07;;;1.63;;
21168;SDS011;10742;51.816;8.662;2023-03-11T13:17:34;6.97;;;1.80;;
21168;SDS011;10742;51.816;8.662;2023-03-11T13:23:42;4.60;;;1.50;;
21168;SDS011;10742;51.816;8.662;2023-03-11T13:26:46;5.27;;;1.70;;
21168;SDS011;10742;51.816;8.662;2023-03-11T13:33:03;6.70;;;1.60;;
21168;SDS011;10742;51.816;8.662;2023-03-11T13:36:21;9.13;;;2.20;;
21168;SDS011;10742;51.816;8.662;2023-03-11T13:39:49;4.53;;;1.37;;
21168;SDS011;10742;51.816;8.662;2023-03-11T13:43:19;7.07;;;1.37;;
21168;SDS011;10742;51.816;8.662;2023-03-11T13:46:27;9.70;;;2.50;;
21168;SDS011;10742;51.816;8.662;2023-03-11T13:49:37;5.60;;;1.80;;
21168;SDS011;10742;51.816;8.662;2023-03-11T13:52:48;3.70;;;1.40;;
21168;SDS011;10742;51.816;8.662;2023-03-11T13:55:55;3.90;;;1.47;;
21168;SDS011;10742;51.816;8.662;2023-03-11T13:59:14;5.87;;;1.43;;
21168;SDS011;10742;51.816;8.662;2023-03-11T14:02:30;5.67;;;1.70;;
21168;SDS011;10742;51.816;8.662;2023-03-11T14:05:33;6.53;;;1.70;;
21168;SDS011;10742;51.816;8.662;2023-03-11T14:08:39;3.13;;;1.70;;
21168;SDS011;10742;51.816;8.662;2023-03-11T14:11:42;3.17;;;1.50;;
21168;SDS011;10742;51.816;8.662;2023-03-11T14:14:55;2.40;;;1.70;;
21168;SDS011;10742;51.816;8.662;2023-03-11T14:18:18;7.60;;;1.20;;
21168;SDS011;10742;51.816;8.662;2023-03-11T14:21:31;50.40;;;15.60;;
21168;SDS011;10742;51.816;8.662;2023-03-11T14:24:35;191.93;;;51.90;;
21168;SDS011;10742;51.816;8.662;2023-03-11T14:27:38;31.33;;;10.23;;
21168;SDS011;10742;51.816;8.662;2023-03-11T14:30:56;40.53;;;13.70;;
21168;SDS011;10742;51.816;8.662;2023-03-11T14:34:20;13.57;;;4.37;;
21168;SDS011;10742;51.816;8.662;2023-03-11T14:37:42;5.60;;;2.27;;
21168;SDS011;10742;51.816;8.662;2023-03-11T14:41:04;5.17;;;2.33;;
21168;SDS011;10742;51.816;8.662;2023-03-11T14:44:26;13.67;;;5.13;;
21168;SDS011;10742;51.816;8.662;2023-03-11T14:48:04;36.23;;;14.80;;
21168;SDS011;10742;51.816;8.662;2023-03-11T14:51:34;11.30;;;3.37;;
21168;SDS011;10742;51.816;8.662;2023-03-11T14:54:56;47.30;;;21.30;;
21168;SDS011;10742;51.816;8.662;2023-03-11T15:04:29;32.20;;;12.83;;
21168;SDS011;10742;51.816;8.662;2023-03-11T15:07:38;33.00;;;13.10;;
21168;SDS011;10742;51.816;8.662;2023-03-11T15:10:58;8.63;;;4.00;;
21168;SDS011;10742;51.816;8.662;2023-03-11T15:14:16;32.30;;;14.60;;
21168;SDS011;10742;51.816;8.662;2023-03-11T15:17:23;40.30;;;17.70;;
21168;SDS011;10742;51.816;8.662;2023-03-11T15:20:40;35.60;;;14.63;;
21168;SDS011;10742;51.816;8.662;2023-03-11T15:23:52;53.43;;;22.43;;
21168;SDS011;10742;51.816;8.662;2023-03-11T15:27:07;50.00;;;20.30;;
21168;SDS011;10742;51.816;8.662;2023-03-11T15:30:23;36.53;;;11.97;;
21168;SDS011;10742;51.816;8.662;2023-03-11T15:33:32;110.10;;;40.53;;
21168;SDS011;10742;51.816;8.662;2023-03-11T15:36:36;41.37;;;16.40;;
21168;SDS011;10742;51.816;8.662;2023-03-11T15:39:41;45.30;;;18.13;;
21168;SDS011;10742;51.816;8.662;2023-03-11T15:42:45;78.70;;;33.23;;
21168;SDS011;10742;51.816;8.662;2023-03-11T15:45:49;135.93;;;63.37;;
21168;SDS011;10742;51.816;8.662;2023-03-11T15:48:54;38.90;;;19.50;;
21168;SDS011;10742;51.816;8.662;2023-03-11T15:51:58;17.50;;;7.87;;
21168;SDS011;10742;51.816;8.662;2023-03-11T15:55:00;14.60;;;6.10;;
21168;SDS011;10742;51.816;8.662;2023-03-11T15:58:04;11.23;;;3.90;;
21168;SDS011;10742;51.816;8.662;2023-03-11T16:01:09;9.63;;;3.67;;
21168;SDS011;10742;51.816;8.662;2023-03-11T16:04:15;10.77;;;2.60;;
21168;SDS011;10742;51.816;8.662;2023-03-11T16:07:19;4.73;;;2.50;;
21168;SDS011;10742;51.816;8.662;2023-03-11T16:10:37;18.57;;;5.73;;
21168;SDS011;10742;51.816;8.662;2023-03-11T16:13:40;6.23;;;3.03;;
21168;SDS011;10742;51.816;8.662;2023-03-11T16:16:42;7.60;;;2.93;;
21168;SDS011;10742;51.816;8.662;2023-03-11T16:19:45;3.33;;;1.97;;
21168;SDS011;10742;51.816;8.662;2023-03-11T16:22:51;6.33;;;2.40;;
21168;SDS011;10742;51.816;8.662;2023-03-11T16:25:58;4.10;;;2.20;;
21168;SDS011;10742;51.816;8.662;2023-03-11T16:29:02;8.77;;;2.93;;
21168;SDS011;10742;51.816;8.662;2023-03-11T16:32:19;6.27;;;3.30;;
21168;SDS011;10742;51.816;8.662;2023-03-11T16:35:21;9.07;;;3.47;;
21168;SDS011;10742;51.816;8.662;2023-03-11T16:38:24;4.53;;;2.33;;
21168;SDS011;10742;51.816;8.662;2023-03-11T16:41:26;6.10;;;2.90;;
21168;SDS011;10742;51.816;8.662;2023-03-11T16:44:28;4.00;;;1.87;;
21168;SDS011;10742;51.816;8.662;2023-03-11T16:47:30;8.47;;;2.30;;
21168;SDS011;10742;51.816;8.662;2023-03-11T16:50:33;8.77;;;2.93;;
21168;SDS011;10742;51.816;8.662;2023-03-11T16:53:38;8.93;;;3.47;;
21168;SDS011;10742;51.816;8.662;2023-03-11T16:56:40;5.17;;;2.80;;
21168;SDS011;10742;51.816;8.662;2023-03-11T16:59:42;6.47;;;2.90;;
21168;SDS011;10742;51.816;8.662;2023-03-11T17:02:45;6.83;;;3.53;;
21168;SDS011;10742;51.816;8.662;2023-03-11T17:05:47;7.23;;;2.97;;
21168;SDS011;10742;51.816;8.662;2023-03-11T17:08:50;3.53;;;2.40;;
21168;SDS011;10742;51.816;8.662;2023-03-11T17:11:52;5.67;;;2.40;;
21168;SDS011;10742;51.816;8.662;2023-03-11T17:14:54;11.37;;;2.87;;
21168;SDS011;10742;51.816;8.662;2023-03-11T17:17:57;8.23;;;2.30;;
21168;SDS011;10742;51.816;8.662;2023-03-11T17:20:59;8.03;;;2.80;;
21168;SDS011;10742;51.816;8.662;2023-03-11T17:24:05;9.20;;;3.83;;
21168;SDS011;10742;51.816;8.662;2023-03-11T17:27:08;12.57;;;5.07;;
21168;SDS011;10742;51.816;8.662;2023-03-11T17:30:11;19.37;;;7.17;;
21168;SDS011;10742;51.816;8.662;2023-03-11T17:33:15;33.60;;;13.83;;
21168;SDS011;10742;51.816;8.662;2023-03-11T17:36:17;17.77;;;6.63;;
21168;SDS011;10742;51.816;8.662;2023-03-11T17:39:20;42.83;;;14.10;;
21168;SDS011;10742;51.816;8.662;2023-03-11T17:42:22;45.30;;;18.27;;
21168;SDS011;10742;51.816;8.662;2023-03-11T17:45:24;32.33;;;11.93;;
21168;SDS011;10742;51.816;8.662;2023-03-11T17:48:27;26.27;;;6.60;;
21168;SDS011;10742;51.816;8.662;2023-03-11T17:51:29;12.77;;;3.57;;
21168;SDS011;10742;51.816;8.662;2023-03-11T17:54:32;7.20;;;2.60;;
21168;SDS011;10742;51.816;8.662;2023-03-11T17:57:34;7.90;;;2.47;;
21168;SDS011;10742;51.816;8.662;2023-03-11T18:00:45;7.90;;;2.30;;
21168;SDS011;10742;51.816;8.662;2023-03-11T18:03:48;5.53;;;2.00;;
21168;SDS011;10742;51.816;8.662;2023-03-11T18:06:52;4.37;;;2.30;;
21168;SDS011;10742;51.816;8.662;2023-03-11T18:09:55;3.03;;;1.87;;
21168;SDS011;10742;51.816;8.662;2023-03-11T18:12:57;5.77;;;2.30;;
21168;SDS011;10742;51.816;8.662;2023-03-11T18:16:05;4.40;;;2.10;;
21168;SDS011;10742;51.816;8.662;2023-03-11T18:19:16;4.57;;;2.07;;
21168;SDS011;10742;51.816;8.662;2023-03-11T18:22:18;5.47;;;2.53;;
21168;SDS011;10742;51.816;8.662;2023-03-11T18:25:20;8.97;;;2.90;;
21168;SDS011;10742;51.816;8.662;2023-03-11T18:28:22;6.67;;;2.67;;
21168;SDS011;10742;51.816;8.662;2023-03-11T18:31:25;9.53;;;2.60;;
21168;SDS011;10742;51.816;8.662;2023-03-11T18:34:29;6.43;;;2.40;;
21168;SDS011;10742;51.816;8.662;2023-03-11T18:37:32;4.63;;;2.33;;
21168;SDS011;10742;51.816;8.662;2023-03-11T18:40:34;14.63;;;3.90;;
21168;SDS011;10742;51.816;8.662;2023-03-11T18:43:37;7.77;;;3.60;;
21168;SDS011;10742;51.816;8.662;2023-03-11T18:46:39;10.97;;;3.33;;
21168;SDS011;10742;51.816;8.662;2023-03-11T18:49:43;13.83;;;4.40;;
21168;SDS011;10742;51.816;8.662;2023-03-11T18:52:48;10.40;;;4.30;;
21168;SDS011;10742;51.816;8.662;2023-03-11T18:56:03;11.87;;;3.40;;
21168;SDS011;10742;51.816;8.662;2023-03-11T18:59:08;10.07;;;3.20;;
21168;SDS011;10742;51.816;8.662;2023-03-11T19:02:12;13.40;;;4.10;;
21168;SDS011;10742;51.816;8.662;2023-03-11T19:05:15;13.43;;;4.90;;
21168;SDS011;10742;51.816;8.662;2023-03-11T19:08:17;33.43;;;12.13;;
21168;SDS011;10742;51.816;8.662;2023-03-11T19:11:20;35.57;;;12.50;;
21168;SDS011;10742;51.816;8.662;2023-03-11T19:14:24;28.20;;;8.17;;
21168;SDS011;10742;51.816;8.662;2023-03-11T19:17:26;27.87;;;7.37;;
21168;SDS011;10742;51.816;8.662;2023-03-11T19:20:29;21.43;;;7.07;;
21168;SDS011;10742;51.816;8.662;2023-03-11T19:23:31;20.63;;;6.27;;
21168;SDS011;10742;51.816;8.662;2023-03-11T19:26:34;21.77;;;5.97;;
21168;SDS011;10742;51.816;8.662;2023-03-11T19:29:45;21.23;;;4.90;;
21168;SDS011;10742;51.816;8.662;2023-03-11T19:32:48;11.77;;;3.67;;
21168;SDS011;10742;51.816;8.662;2023-03-11T19:35:57;11.40;;;3.63;;
21168;SDS011;10742;51.816;8.662;2023-03-11T19:39:01;9.50;;;3.67;;
21168;SDS011;10742;51.816;8.662;2023-03-11T19:42:04;8.13;;;3.60;;
21168;SDS011;10742;51.816;8.662;2023-03-11T19:45:07;9.40;;;3.30;;
21168;SDS011;10742;51.816;8.662;2023-03-11T19:48:09;10.73;;;3.70;;
21168;SDS011;10742;51.816;8.662;2023-03-11T19:51:14;12.37;;;4.53;;
21168;SDS011;10742;51.816;8.662;2023-03-11T19:54:17;10.17;;;4.37;;
21168;SDS011;10742;51.816;8.662;2023-03-11T19:57:20;15.80;;;4.97;;